Time;durP1;ratioP1;P1;durP2;ratioP2;P2;SDS_P1;SDS_P2;PMS_P1;PMS_P2;Temp;Humidity;BMP_temperature;BMP_pressure;BME280_temperature;BME280_humidity;BME280_pressure;Samples;Min_cycle;Max_cycle;Signal;HPM_P1;HPM_P2
2022/08/28 00:08:04;;;;;;;;;;;;;;;;;;21256925;27;19998;-60
2022/08/28 00:18:06;;;;;;;;;;;;;;;;;;21254879;27;19924;-61
2022/08/28 00:28:08;;;;;;;;;;;;;;;;;;21256334;27;19978;-61
2022/08/28 00:38:10;;;;;;;;;;;;;;;;;;21253966;27;19971;-55
2022/08/28 00:48:11;;;;;;;;;;;;;;;;;;21253591;27;19967;-56
2022/08/28 00:58:13;;;;;;;;;;;;;;;;;;21252862;27;20018;-55
2022/08/28 01:08:15;;;;;;;;;;;;;;;;;;21251683;27;19998;-56
2022/08/28 01:18:17;;;;;;;;;;;;;;;;;;21250902;27;19923;-54
2022/08/28 01:28:18;;;;;;;;;;;;;;;;;;21249759;27;19962;-54
2022/08/28 01:38:23;;;;;;;;;;;;;;;;;;21250300;27;19924;-55
2022/08/28 01:48:27;;;;;;;;;;;;;;;;;;21249146;27;19955;-54
2022/08/28 01:58:32;;;;;;;;;;;;;;;;;;21248370;27;20029;-55
2022/08/28 02:08:40;;;;;;;;;;;;;;;;;;21247793;28;19931;-56
2022/08/28 02:18:46;;;;;;;;;;;;;;;;;;21248061;28;20299;-55
2022/08/28 02:28:53;;;;;;;;;;;;;;;;;;21247287;28;20349;-56
2022/08/28 02:38:54;;;;;;;;;;;;;;;;;;21247682;28;20369;-56
2022/08/28 02:48:59;;;;;;;;;;;;;;;;;;21261912;27;19962;-56
2022/08/28 02:59:06;;;;;;;;;;;;;;;;;;21261942;27;19927;-55
2022/08/28 03:09:10;;;;;;;;;;;;;;;;;;21189523;27;19923;-57
2022/08/28 03:19:16;;;;;;;;;;;;;;;;;;21176176;28;20047;-55
2022/08/28 03:29:20;;;;;;;;;;;;;;;;;;21174683;28;20010;-54
2022/08/28 03:39:22;;;;;;;;;;;;;;;;;;21174618;28;20367;-58
2022/08/28 03:49:28;;;;;;;;;;;;;;;;;;21172895;28;20408;-59
2022/08/28 03:59:30;;;;;;;;;;;;;;;;;;21172563;28;20462;-62
2022/08/28 04:09:32;;;;;;;;;;;;;;;;;;21171515;28;19927;-61
2022/08/28 04:19:34;;;;;;;;;;;;;;;;;;21170844;28;19932;-59
2022/08/28 04:29:36;;;;;;;;;;;;;;;;;;21169863;28;20068;-62
2022/08/28 04:39:38;;;;;;;;;;;;;;;;;;21170113;28;19928;-60
2022/08/28 04:49:45;;;;;;;;;;;;;;;;;;21170197;28;20376;-62
2022/08/28 04:59:47;;;;;;;;;;;;;;;;;;21168560;28;20390;-62
2022/08/28 05:09:48;;;;;;;;;;;;;;;;;;21165943;28;19944;-62
2022/08/28 05:19:51;;;;;;;;;;;;;;;;;;21166835;28;20317;-62
2022/08/28 05:29:53;;;;;;;;;;;;;;;;;;21164759;28;19950;-59
2022/08/28 05:39:55;;;;;;;;;;;;;;;;;;21165944;28;19923;-61
2022/08/28 05:49:57;;;;;;;;;;;;;;;;;;21164998;28;19955;-59
2022/08/28 06:00:01;;;;;;;;;;;;;;;;;;21163288;28;19924;-61
2022/08/28 06:10:06;;;;;;;;;;;;;;;;;;21163171;28;19968;-62
2022/08/28 06:20:09;;;;;;;;;;;;;;;;;;21174902;28;19923;-56
2022/08/28 06:30:13;;;;;;;;;;;;;;;;;;21179698;28;19924;-57
2022/08/28 06:40:15;;;;;;;;;;;;;;;;;;21178555;28;19931;-57
2022/08/28 06:50:16;;;;;;;;;;;;;;;;;;21177691;28;20307;-57
2022/08/28 07:00:20;;;;;;;;;;;;;;;;;;21177014;28;19923;-55
2022/08/28 07:10:22;;;;;;;;;;;;;;;;;;21176464;28;20329;-57
2022/08/28 07:20:23;;;;;;;;;;;;;;;;;;21176401;28;19924;-57
2022/08/28 07:30:25;;;;;;;;;;;;;;;;;;21173963;28;20010;-59
2022/08/28 07:40:27;;;;;;;;;;;;;;;;;;21173776;28;19996;-58
2022/08/28 07:50:28;;;;;;;;;;;;;;;;;;21173563;28;20021;-58
2022/08/28 08:00:30;;;;;;;;;;;;;;;;;;21172352;28;19924;-56
2022/08/28 08:10:32;;;;;;;;;;;;;;;;;;21171242;28;19969;-56
2022/08/28 08:20:33;;;;;;;;;;;;;;;;;;21171921;28;19931;-55
2022/08/28 08:30:35;;;;;;;;;;;;;;;;;;21170099;28;20337;-60
2022/08/28 08:40:37;;;;;;;;;;;;;;;;;;21169238;28;19930;-55
2022/08/28 08:50:39;;;;;;;;;;;;;;;;;;21169098;28;19931;-56
2022/08/28 09:00:41;;;;;;;;;;;;;;;;;;21168238;28;20273;-56
2022/08/28 09:10:43;;;;;;;;;;;;;;;;;;21165901;28;20399;-57
2022/08/28 09:20:45;;;;;;;;;;;;;;;;;;21165396;28;19923;-57
2022/08/28 09:30:47;;;;;;;;;;;;;;;;;;21164156;28;19973;-57
2022/08/28 09:51:15;;;;;;;;;;;;;;;;;;21164111;28;19924;-55
2022/08/28 10:01:21;;;;;;;;;;;;;;;;;;21164433;28;19924;-58
2022/08/28 10:11:23;;;;;;;;;;;;;;;;;;21163779;28;19938;-55
2022/08/28 10:21:24;;;;;;;;;;;;;;;;;;21162659;28;20276;-56
2022/08/28 10:31:27;;;;;;;;;;;;;;;;;;21161588;28;20288;-54
2022/08/28 10:41:28;;;;;;;;;;;;;;;;;;21161837;28;20332;-55
2022/08/28 10:51:30;;;;;;;;;;;;;;;;;;21161188;28;20349;-54
2022/08/28 11:01:32;;;;;;;;;;;;;;;;;;21125259;28;19923;-55
2022/08/28 11:11:34;;;;;;;;;;;;;;;;;;21172973;28;19924;-53
2022/08/28 11:21:36;;;;;;;;;;;;;;;;;;21176513;28;20423;-55
2022/08/28 11:31:38;;;;;;;;;;;;;;;;;;21251704;27;19930;-53
2022/08/28 11:41:40;;;;;;;;;;;;;;;;;;21260086;27;19923;-54
2022/08/28 11:51:42;;;;;;;;;;;;;;;;;;21257466;27;19963;-55
2022/08/28 12:01:44;;;;;;;;;;;;;;;;;;21258792;27;20351;-54
2022/08/28 12:11:45;;;;;;;;;;;;;;;;;;21256157;27;19931;-56
2022/08/28 12:21:47;;;;;;;;;;;;;;;;;;21255658;27;19981;-56
2022/08/28 12:42:09;;;;;;;;;;;;;;;;;;21254418;27;19927;-54
2022/08/28 12:52:11;;;;;;;;;;;;;;;;;;21253073;27;19967;-53
2022/08/28 13:02:13;;;;;;;;;;;;;;;;;;21251993;27;20366;-56
2022/08/28 13:12:15;;;;;;;;;;;;;;;;;;21253721;27;20367;-58
2022/08/28 13:22:17;;;;;;;;;;;;;;;;;;21254232;27;20407;-53
2022/08/28 13:32:19;;;;;;;;;;;;;;;;;;21249138;27;20022;-60
2022/08/28 13:42:21;;;;;;;;;;;;;;;;;;21249283;27;19927;-61
2022/08/28 13:52:22;;;;;;;;;;;;;;;;;;21248864;27;19992;-59
2022/08/28 14:12:46;;;;;;;;;;;;;;;;;;21249050;28;19927;-59
2022/08/28 14:22:48;;;;;;;;;;;;;;;;;;21249432;28;19927;-61
2022/08/28 14:32:50;;;;;;;;;;;;;;;;;;21246685;27;19954;-61
2022/08/28 14:42:51;;;;;;;;;;;;;;;;;;21258600;27;20048;-60
2022/08/28 14:52:53;;;;;;;;;;;;;;;;;;21263539;27;20343;-62
2022/08/28 15:02:55;;;;;;;;;;;;;;;;;;21262953;27;19923;-62
2022/08/28 15:12:57;;;;;;;;;;;;;;;;;;21261416;27;20382;-53
2022/08/28 15:22:58;;;;;;;;;;;;;;;;;;21260870;27;19924;-53
2022/08/28 15:33:01;;;;;;;;;;;;;;;;;;21259345;27;20085;-54
2022/08/28 15:43:02;;;;;;;;;;;;;;;;;;21259475;27;19924;-54
2022/08/28 15:53:04;;;;;;;;;;;;;;;;;;21257736;27;19923;-55
2022/08/28 16:03:06;;;;;;;;;;;;;;;;;;21257510;27;20159;-53
2022/08/28 16:13:08;;;;;;;;;;;;;;;;;;21256811;27;20383;-55
2022/08/28 16:23:10;;;;;;;;;;;;;;;;;;21256720;27;20324;-57
2022/08/28 16:33:15;;;;;;;;;;;;;;;;;;21254923;27;19924;-58
2022/08/28 16:43:16;;;;;;;;;;;;;;;;;;21254984;27;19924;-59
2022/08/28 16:53:18;;;;;;;;;;;;;;;;;;21253063;27;20068;-61
2022/08/28 17:03:20;;;;;;;;;;;;;;;;;;21252215;27;19924;-54
2022/08/28 17:13:21;;;;;;;;;;;;;;;;;;21252614;27;19930;-58
2022/08/28 17:23:23;;;;;;;;;;;;;;;;;;21252729;27;19923;-61
2022/08/28 17:33:25;;;;;;;;;;;;;;;;;;21252367;27;19930;-54
2022/08/28 17:43:27;;;;;;;;;;;;;;;;;;21251850;27;20022;-56
2022/08/28 17:53:29;;;;;;;;;;;;;;;;;;21249806;27;19976;-57
2022/08/28 18:03:34;;;;;;;;;;;;;;;;;;21247193;27;19923;-54
2022/08/28 18:13:35;;;;;;;;;;;;;;;;;;21255163;27;19923;-60
2022/08/28 18:23:38;;;;;;;;;;;;;;;;;;21264864;27;19927;-54
2022/08/28 18:33:40;;;;;;;;;;;;;;;;;;21264363;27;19923;-54
2022/08/28 18:43:42;;;;;;;;;;;;;;;;;;21264253;27;19923;-59
2022/08/28 18:53:44;;;;;;;;;;;;;;;;;;21263595;27;20302;-57
2022/08/28 19:03:46;;;;;;;;;;;;;;;;;;21261144;27;19923;-60
2022/08/28 19:13:47;;;;;;;;;;;;;;;;;;21260494;27;19928;-56
2022/08/28 19:23:49;;;;;;;;;;;;;;;;;;21258488;27;20405;-59
2022/08/28 19:33:51;;;;;;;;;;;;;;;;;;21260341;27;19967;-62
2022/08/28 19:43:53;;;;;;;;;;;;;;;;;;21258404;27;19930;-61
2022/08/28 19:53:55;;;;;;;;;;;;;;;;;;21257639;27;20014;-63
2022/08/28 20:03:56;;;;;;;;;;;;;;;;;;21256731;27;19923;-61
2022/08/28 20:13:58;;;;;;;;;;;;;;;;;;21255764;27;19967;-57
2022/08/28 20:24:00;;;;;;;;;;;;;;;;;;21255330;27;19923;-57
2022/08/28 20:34:02;;;;;;;;;;;;;;;;;;21254640;27;20344;-61
2022/08/28 20:44:06;;;;;;;;;;;;;;;;;;21254060;27;19942;-63
2022/08/28 20:54:08;;;;;;;;;;;;;;;;;;21253564;27;20022;-56
2022/08/28 21:04:10;;;;;;;;;;;;;;;;;;21252376;27;19924;-55
2022/08/28 21:14:12;;;;;;;;;;;;;;;;;;21252245;27;20024;-61
2022/08/28 21:24:14;;;;;;;;;;;;;;;;;;21251847;27;19923;-61
2022/08/28 21:34:15;;;;;;;;;;;;;;;;;;21250432;27;19923;-60
2022/08/28 21:44:17;;;;;;;;;;;;;;;;;;21249420;27;20398;-60
2022/08/28 21:54:19;;;;;;;;;;;;;;;;;;21249874;27;19972;-63
2022/08/28 22:04:21;;;;;;;;;;;;;;;;;;21249386;27;19976;-63
2022/08/28 22:14:23;;;;;;;;;;;;;;;;;;21249005;27;20389;-59
2022/08/28 22:24:26;;;;;;;;;;;;;;;;;;21248378;28;20014;-61
2022/08/28 22:34:28;;;;;;;;;;;;;;;;;;21247252;27;19927;-61
2022/08/28 22:44:29;;;;;;;;;;;;;;;;;;21247823;28;19923;-62
2022/08/28 22:54:32;;;;;;;;;;;;;;;;;;21229753;27;19923;-61
2022/08/28 23:04:33;;;;;;;;;;;;;;;;;;21259407;27;19923;-61
2022/08/28 23:14:35;;;;;;;;;;;;;;;;;;21262245;27;20002;-54
2022/08/28 23:24:37;;;;;;;;;;;;;;;;;;21260646;27;20391;-54
2022/08/28 23:34:38;;;;;;;;;;;;;;;;;;21260519;27;19969;-59
2022/08/28 23:44:40;;;;;;;;;;;;;;;;;;21259442;27;19923;-52
2022/08/28 23:54:42;;;;;;;;;;;;;;;;;;21258934;27;19962;-60
